Αρχική σελίδα
METAR-TAF:

METAR-TAF

Αεροδρόμια :

Mitiga International Airport

Τρίπολη, Λιβύη

γεωγραφικό πλάτος: 32-54N, γεωγραφικό μήκος: 13-17E, υψόμετρο: 11 μ

METAR: λείπει

Χρόνος: 23:44 (21:44 UTC)

Πρόγνωση Καιρού

Η αναφορά έγινε 10 ώρες και 44 λεπτά πριν, στις 11:00 UTC
Η πρόγνωση ισχύει από τις 30 στις 12 UTC έως τις 31 στις 12 UTC
Άνεμος 10 kt από Β/BΔ
Ορατότητα: 8000 μ
Λίγα νέφη σε ύψος 2500 πόδια
Καθιστάμενος
από 30 στις 18 UTC έως τις 30 στις 20 UTC
Άνεμος 2 kt από μεταβλητές κατευθύνσεις
Καθιστάμενος
από 31 στις 04 UTC έως τις 31 στις 06 UTC
Άνεμος 12 kt από Α/BA

TAF: HLLM 301100Z 3012/3112 34010KT 8000 FEW025 BECMG 3018/3020 VRB02KT BECMG 3104/3106 07012KT

Μετεωρολογικές αναφορές και προγνώσεις για περισσότερα από 4000 αεροδρόμια (δελτία METAR και TAF).

Οι διαθέσιμοι σταθμοί απεικονίζονται στο χάρτη με κίτρινες και κόκκινες κουκκίδες.

Μετακινήστε το ποντίκι πάνω από τις κουκκίδες για να δείτε το όνομα του σταθμού.

Στη συνέχεια, κάντε κλικ για να δείτε τις μετεωρολογικές αναφορές και τις προγνώσεις καιρού.

Για να αλλάξετε το χάρτη: κάντε κλικ στα πράσινα κουμπιά με τον μαύρο σταυρό για να ζουμάρετε, στο πράσινο κουμπί με την παύλα για να αφαιρέσετε το ζουμ ή στα πράσινα βέλη για να αντιπαραβάλλετε χάρτες.


METAR-TAF: